Oakham, Massachusetts
Current Conditions -  °F | °C
As of 5:54 PM on Wednesday 22 Oct 2014 (Local Time) from KORH Reporting Station
Light Rain Light Rain  
Wind Chill: 38°   Ceiling: 500
Heat Index: 46°   Visibility: 2mi
Dew Point: 45°   Wind: 20mph
Humidity: 96%   Direction: 30°NNE
Pressure: 29.88"   Gusts: 36mph
Location:  42.35°N, 72.05°W
Report Text: KORH 222154Z 03017G31KT 2SM -RA BR OVC005 08/07 A2988 RMK AO2 PK WND 04031/2151 CIG 003V007 SLP125 P0003 T00780072
Loading
Personal Weather Stations






























Interactive Weather Map
Tropical Storm Tracking
New forecast layout! Learn more

10-Day Weather Forecast

Advertisements
Track Severe Weather on mobile